Terminal Aerodrome Forecast
Issued by NWS

Home | Current Version | Previous Version | Text Only | Print | Product List | Glossary On
Versions: 1 2 3 4 5 6 7 8 9 10 11 12 13 14 15 16 17 18 19
000
FTUS43 KAPX 291100
TAFAPN
TAF
KAPN 291120Z 2912/3012 00000KT P6SM BKN250
     FM291300 16008KT P6SM -RA OVC040
     FM291700 16008G15KT P6SM BKN050 BKN120
     FM292300 17006KT P6SM BKN100
     FM300900 18004KT P6SM BKN050 OVC150=

USA.gov is the U.S. government's official web portal to all federal, state and local government web resources and services.